Time;durP1;ratioP1;P1;durP2;ratioP2;P2;SDS_P1;SDS_P2;PMS_P1;PMS_P2;Temp;Humidity;BMP_temperature;BMP_pressure;BME280_temperature;BME280_humidity;BME280_pressure;Samples;Min_cycle;Max_cycle;Signal;HPM_P1;HPM_P2
2021/01/02 00:00:52;;;;;;;42.90;26.80;;;1.60;99.90;;;;;;4972359;28;20198;-74
2021/01/02 00:03:57;;;;;;;39.35;27.38;;;1.60;99.90;;;;;;4973884;28;20055;-74
2021/01/02 00:06:40;;;;;;;37.63;27.50;;;1.60;99.90;;;;;;4969660;28;20074;-74
2021/01/02 00:09:10;;;;;;;40.90;26.77;;;1.50;99.90;;;;;;4962550;28;20179;-74
2021/01/02 00:11:47;;;;;;;44.30;32.05;;;1.40;99.90;;;;;;4974363;28;20054;-74
2021/01/02 00:14:20;;;;;;;52.15;35.47;;;1.30;99.90;;;;;;4973398;28;20118;-73
2021/01/02 00:17:10;;;;;;;44.63;30.73;;;1.20;99.90;;;;;;4972880;28;20066;-74
2021/01/02 00:20:03;;;;;;;50.95;34.17;;;1.20;99.90;;;;;;4968855;28;20038;-74
2021/01/02 00:22:34;;;;;;;54.42;35.88;;;1.20;99.90;;;;;;4972820;28;20039;-74
2021/01/02 00:25:06;;;;;;;50.78;35.38;;;1.30;99.90;;;;;;4966276;28;20054;-74
2021/01/02 00:27:43;;;;;;;51.67;35.90;;;1.30;99.90;;;;;;4972665;28;20090;-74
2021/01/02 00:30:17;;;;;;;41.85;31.27;;;1.30;99.90;;;;;;4967846;28;20042;-74
2021/01/02 00:33:16;;;;;;;40.42;27.95;;;1.40;99.90;;;;;;4970432;28;20094;-74
2021/01/02 00:35:43;;;;;;;31.45;22.45;;;1.50;99.90;;;;;;4970314;28;20042;-74
2021/01/02 00:38:11;;;;;;;32.47;21.60;;;1.50;99.90;;;;;;4971902;28;20035;-74
2021/01/02 00:40:38;;;;;;;31.25;22.98;;;1.50;99.90;;;;;;4970451;28;20047;-74
2021/01/02 00:43:04;;;;;;;37.88;25.83;;;1.50;99.90;;;;;;4972656;28;20045;-74
2021/01/02 00:45:32;;;;;;;35.10;25.77;;;1.50;99.90;;;;;;4973965;28;20094;-74
2021/01/02 00:48:00;;;;;;;38.50;27.85;;;1.50;99.90;;;;;;4973862;28;20490;-74
2021/01/02 00:50:27;;;;;;;44.22;31.48;;;1.40;99.90;;;;;;4972819;28;20134;-74
2021/01/02 00:53:02;;;;;;;42.50;29.63;;;1.30;99.90;;;;;;4973740;28;20035;-74
2021/01/02 00:55:48;;;;;;;38.75;27.63;;;1.20;99.90;;;;;;4965267;28;20039;-74
2021/01/02 00:58:27;;;;;;;38.72;26.70;;;1.20;99.90;;;;;;4970109;28;20534;-74
2021/01/02 01:01:00;;;;;;;35.35;24.23;;;1.30;99.90;;;;;;4970550;28;20051;-74
2021/01/02 01:03:53;;;;;;;40.72;28.65;;;1.30;99.90;;;;;;4969719;28;20451;-74
2021/01/02 01:06:22;;;;;;;38.20;27.77;;;1.40;99.90;;;;;;4969492;28;20051;-74
2021/01/02 01:08:53;;;;;;;33.40;24.58;;;1.40;99.90;;;;;;4975201;28;20057;-74
2021/01/02 01:11:23;;;;;;;34.80;25.13;;;1.40;99.90;;;;;;4976253;28;20109;-74
2021/01/02 01:13:55;;;;;;;34.97;25.10;;;1.40;99.90;;;;;;4973575;28;20050;-74
2021/01/02 01:16:22;;;;;;;35.42;25.58;;;1.40;99.90;;;;;;4973932;28;20043;-74
2021/01/02 01:18:55;;;;;;;35.85;27.27;;;1.40;99.90;;;;;;4975708;28;20049;-74
2021/01/02 01:21:29;;;;;;;34.28;23.90;;;1.40;99.90;;;;;;4975758;28;20046;-75
2021/01/02 01:24:12;;;;;;;30.88;22.90;;;1.50;99.90;;;;;;4977117;28;20035;-74
2021/01/02 01:27:14;;;;;;;31.25;22.08;;;1.40;99.90;;;;;;4977108;28;20045;-74
2021/01/02 01:29:55;;;;;;;31.05;22.35;;;1.40;99.90;;;;;;4971187;28;20063;-74
2021/01/02 01:32:24;;;;;;;34.95;25.23;;;1.40;99.90;;;;;;4976835;28;20113;-74
2021/01/02 01:34:55;;;;;;;39.08;27.70;;;1.40;99.90;;;;;;4975789;28;20403;-74
2021/01/02 01:37:24;;;;;;;32.63;24.55;;;1.30;99.90;;;;;;4974374;28;20495;-74
2021/01/02 01:39:52;;;;;;;31.48;24.52;;;1.40;99.90;;;;;;4983369;28;20034;-74
2021/01/02 01:42:25;;;;;;;29.50;23.77;;;1.40;99.90;;;;;;4974541;28;20039;-74
2021/01/02 01:44:54;;;;;;;29.70;23.50;;;1.40;99.90;;;;;;4970051;28;20045;-74
2021/01/02 01:47:22;;;;;;;30.42;21.90;;;1.50;99.90;;;;;;4976646;28;20118;-74
2021/01/02 01:50:15;;;;;;;32.97;24.27;;;1.50;99.90;;;;;;4971223;28;20043;-74
2021/01/02 01:53:27;;;;;;;28.60;20.77;;;1.50;99.90;;;;;;4968917;28;20384;-74
2021/01/02 01:55:58;;;;;;;28.00;21.30;;;1.50;99.90;;;;;;4973985;28;20043;-74
2021/01/02 01:59:08;;;;;;;28.75;21.00;;;1.50;99.90;;;;;;4976413;28;20066;-74
2021/01/02 02:04:51;;;;;;;30.85;23.30;;;1.60;99.90;;;;;;4970519;28;20054;-78
2021/01/02 02:07:18;;;;;;;29.48;22.02;;;1.50;99.90;;;;;;4966369;28;20047;-78
2021/01/02 02:09:53;;;;;;;27.50;22.90;;;1.50;99.90;;;;;;4967615;28;20038;-79
2021/01/02 02:12:21;;;;;;;32.50;23.63;;;1.50;99.90;;;;;;4973549;28;20143;-78
2021/01/02 02:15:03;;;;;;;19.83;14.93;;;1.60;99.90;;;;;;4949004;28;20039;-78
2021/01/02 02:17:42;;;;;;;16.45;11.77;;;1.70;99.90;;;;;;4960903;28;20042;-78
2021/01/02 02:20:10;;;;;;;13.65;9.57;;;;;;;;;;4961706;28;20043;-79
2021/01/02 02:22:36;;;;;;;14.65;9.27;;;;;;;;;;4963368;28;20049;-79
2021/01/02 02:25:03;;;;;;;14.27;9.65;;;;;;;;;;4975533;28;20039;-78
2021/01/02 02:27:30;;;;;;;12.75;9.50;;;;;;;;;;4967537;28;20047;-79
2021/01/02 02:30:05;;;;;;;13.48;10.25;;;;;;;;;;4973227;28;20066;-79
2021/01/02 02:32:34;;;;;;;11.60;9.15;;;;;;;;;;4966731;28;20043;-79
2021/01/02 02:35:02;;;;;;;11.05;9.10;;;;;;;;;;4978470;28;20129;-78
2021/01/02 02:37:28;;;;;;;12.30;9.20;;;;;;;;;;4969711;28;20549;-78
2021/01/02 02:39:54;;;;;;;11.80;9.13;;;;;;;;;;4960200;28;20042;-79
2021/01/02 02:42:22;;;;;;;12.15;9.32;;;;;;;;;;4958811;28;20047;-79
2021/01/02 02:44:51;;;;;;;17.75;10.48;;;;;;;;;;4955324;28;20062;-78
2021/01/02 02:47:19;;;;;;;13.25;9.15;;;;;;;;;;4965629;28;20039;-78
2021/01/02 02:49:50;;;;;;;12.48;9.75;;;;;;;;;;4961024;28;20643;-78
2021/01/02 02:52:20;;;;;;;13.48;8.98;;;;;;;;;;4972739;28;20074;-78
2021/01/02 02:54:46;;;;;;;12.50;8.73;;;;;;;;;;4958030;28;20047;-78
2021/01/02 02:57:13;;;;;;;12.90;9.45;;;;;;;;;;4981748;28;20038;-79
2021/01/02 02:59:39;;;;;;;15.77;11.00;;;;;;;;;;4964865;28;20042;-79
2021/01/02 03:02:05;;;;;;;14.73;10.15;;;;;;;;;;4961599;28;20043;-79
2021/01/02 03:04:33;;;;;;;13.63;9.73;;;1.90;99.90;;;;;;4966041;28;20042;-79
2021/01/02 03:07:02;;;;;;;12.05;9.43;;;2.90;99.90;;;;;;4956845;28;20062;-79
2021/01/02 03:09:29;;;;;;;12.02;8.82;;;;;;;;;;4980802;28;20039;-79
2021/01/02 03:11:55;;;;;;;12.05;9.20;;;;;;;;;;4983233;28;20080;-79
2021/01/02 03:14:22;;;;;;;12.75;9.88;;;;;;;;;;4975601;28;20038;-79
2021/01/02 03:16:48;;;;;;;12.93;9.73;;;;;;;;;;4981527;28;20483;-79
2021/01/02 03:19:14;;;;;;;12.80;9.90;;;2.80;99.90;;;;;;4965021;28;20466;-79
2021/01/02 03:21:40;;;;;;;15.00;10.57;;;3.30;99.90;;;;;;4958231;28;20071;-78
2021/01/02 03:24:09;;;;;;;14.88;9.90;;;;;;;;;;4958198;28;20050;-78
2021/01/02 03:26:35;;;;;;;15.68;10.18;;;;;;;;;;4989444;28;20495;-78
2021/01/02 03:29:02;;;;;;;16.50;10.60;;;;;;;;;;4971132;28;20039;-78
2021/01/02 03:31:31;;;;;;;13.30;9.93;;;;;;;;;;4954676;28;20039;-78
2021/01/02 03:33:58;;;;;;;12.63;9.43;;;;;;;;;;4956602;28;20502;-78
2021/01/02 03:36:27;;;;;;;14.95;10.43;;;;;;;;;;4982411;28;20042;-79
2021/01/02 03:38:58;;;;;;;13.05;9.85;;;;;;;;;;4966966;28;20046;-79
2021/01/02 03:41:25;;;;;;;;;;;;;;;;;;4959366;28;20066;-78
2021/01/02 03:43:52;;;;;;;12.40;9.43;;;;;;;;;;4978163;28;20270;-78
2021/01/02 03:46:20;;;;;;;13.70;10.10;;;;;;;;;;4960511;28;20061;-78
2021/01/02 03:48:47;;;;;;;14.60;10.20;;;;;;;;;;4971432;28;20191;-78
2021/01/02 03:51:14;;;;;;;12.10;9.70;;;;;;;;;;4965422;28;20039;-78
2021/01/02 03:53:41;;;;;;;12.77;9.90;;;;;;;;;;4974002;28;20043;-78
2021/01/02 03:56:10;;;;;;;12.55;9.50;;;;;;;;;;4975759;28;20030;-78
2021/01/02 03:58:37;;;;;;;;;;;;;;;;;;4964492;28;20375;-78
2021/01/02 04:01:04;;;;;;;12.52;9.55;;;;;;;;;;4978710;28;19913;-78
2021/01/02 04:03:31;;;;;;;13.85;8.45;;;;;;;;;;4967070;28;20051;-78
2021/01/02 04:05:58;;;;;;;11.93;8.85;;;;;;;;;;4977316;28;20066;-78
2021/01/02 04:08:26;;;;;;;12.23;9.15;;;;;;;;;;4981577;28;20393;-78
2021/01/02 04:10:54;;;;;;;13.95;8.32;;;;;;;;;;4981037;28;20049;-78
2021/01/02 04:13:23;;;;;;;13.75;9.32;;;;;;;;;;4967135;28;20121;-78
2021/01/02 04:15:52;;;;;;;10.95;8.43;;;;;;;;;;4960785;28;20482;-78
2021/01/02 04:18:21;;;;;;;10.48;7.40;;;;;;;;;;4963502;28;20041;-78
2021/01/02 04:20:51;;;;;;;13.75;8.85;;;;;;;;;;4976290;28;20066;-79
2021/01/02 04:23:20;;;;;;;11.48;8.70;;;;;;;;;;4980445;28;20050;-78
2021/01/02 04:25:49;;;;;;;11.25;7.47;;;;;;;;;;4976409;28;20043;-78
2021/01/02 04:28:18;;;;;;;10.50;8.20;;;;;;;;;;4977817;28;20050;-79
2021/01/02 04:30:45;;;;;;;11.00;8.00;;;;;;;;;;4965360;28;20043;-79
2021/01/02 04:33:12;;;;;;;11.32;8.43;;;;;;;;;;4961179;28;20046;-78
2021/01/02 04:35:38;;;;;;;9.95;7.05;;;;;;;;;;4966900;28;20146;-78
2021/01/02 04:38:04;;;;;;;9.38;7.10;;;;;;;;;;4979314;28;20486;-78
2021/01/02 04:40:30;;;;;;;11.20;7.93;;;;;;;;;;4980376;28;20051;-78
2021/01/02 04:42:56;;;;;;;11.07;7.43;;;;;;;;;;4982649;28;20093;-78
2021/01/02 04:45:24;;;;;;;11.60;7.88;;;;;;;;;;4961848;28;20043;-78
2021/01/02 04:47:52;;;;;;;12.10;8.43;;;;;;;;;;4983314;28;20093;-78
2021/01/02 04:50:18;;;;;;;12.15;8.18;;;;;;;;;;4960119;28;20158;-78
2021/01/02 04:52:45;;;;;;;12.90;8.18;;;;;;;;;;4965075;28;20042;-79
2021/01/02 04:55:12;;;;;;;10.93;7.78;;;;;;;;;;4978664;28;20054;-79
2021/01/02 04:57:40;;;;;;;13.90;9.52;;;;;;;;;;4964884;28;20054;-79
2021/01/02 05:00:07;;;;;;;9.43;7.45;;;;;;;;;;4966898;28;20391;-78
2021/01/02 05:02:34;;;;;;;13.23;8.27;;;;;;;;;;4985372;28;20061;-79
2021/01/02 05:05:02;;;;;;;9.85;7.25;;;;;;;;;;4970156;28;20039;-79
2021/01/02 05:07:29;;;;;;;10.35;7.43;;;;;;;;;;4979197;28;20039;-78
2021/01/02 05:09:56;;;;;;;11.35;7.57;;;;;;;;;;4971084;28;20497;-78
2021/01/02 05:12:28;;;;;;;11.40;6.88;;;;;;;;;;4983446;28;20046;-78
2021/01/02 05:15:02;;;;;;;8.57;6.90;;;;;;;;;;4969657;28;20046;-79
2021/01/02 05:17:28;;;;;;;9.90;7.40;;;;;;;;;;4967709;28;20034;-78
2021/01/02 05:20:03;;;;;;;12.77;7.80;;;;;;;;;;4981505;28;20491;-78
2021/01/02 05:22:32;;;;;;;12.93;8.35;;;;;;;;;;4983975;28;20047;-79
2021/01/02 05:25:06;;;;;;;11.20;7.90;;;3.20;99.90;;;;;;4968382;28;20490;-78
2021/01/02 05:27:35;;;;;;;7.88;6.63;;;3.10;99.90;;;;;;4962111;28;20133;-79
2021/01/02 05:30:25;;;;;;;9.13;6.68;;;3.10;99.90;;;;;;4975513;28;20141;-78
2021/01/02 05:33:03;;;;;;;9.70;7.03;;;3.10;99.90;;;;;;4962383;28;20039;-78
2021/01/02 05:35:34;;;;;;;10.60;7.78;;;3.30;99.90;;;;;;4970781;28;20066;-78
2021/01/02 05:38:17;;;;;;;10.93;7.50;;;3.00;99.90;;;;;;4964414;28;20514;-78
2021/01/02 05:40:45;;;;;;;9.63;7.00;;;3.40;99.90;;;;;;4975161;28;20043;-78
2021/01/02 05:43:12;;;;;;;9.82;7.50;;;3.50;99.90;;;;;;4976382;28;20372;-78
2021/01/02 05:45:39;;;;;;;9.50;7.05;;;3.40;99.90;;;;;;4976537;28;20118;-78
2021/01/02 05:48:16;;;;;;;8.48;6.32;;;3.30;99.90;;;;;;4963331;28;20042;-78
2021/01/02 05:50:45;;;;;;;12.70;6.07;;;3.40;99.90;;;;;;4957590;28;20036;-78
2021/01/02 05:53:25;;;;;;;;;;;3.30;99.90;;;;;;4972045;28;20434;-78
2021/01/02 05:56:12;;;;;;;;;;;3.20;99.90;;;;;;4986230;28;19918;-78
2021/01/02 05:58:39;;;;;;;11.80;6.53;;;3.10;99.90;;;;;;4974657;28;19918;-78
2021/01/02 06:01:11;;;;;;;10.38;6.28;;;3.20;99.90;;;;;;4978680;28;20038;-78
2021/01/02 06:03:37;;;;;;;;;;;3.20;99.90;;;;;;4967316;28;20590;-79
2021/01/02 06:06:06;;;;;;;7.82;6.00;;;3.30;99.90;;;;;;4974637;28;19969;-78
2021/01/02 06:08:40;;;;;;;8.40;5.28;;;3.30;99.90;;;;;;4980622;28;20053;-77
2021/01/02 06:11:08;;;;;;;7.45;5.53;;;3.30;99.90;;;;;;4971163;28;20077;-78
2021/01/02 06:13:36;;;;;;;8.02;6.35;;;3.30;99.90;;;;;;4973251;28;20063;-78
2021/01/02 06:16:04;;;;;;;7.32;5.53;;;3.40;99.90;;;;;;4966916;28;20035;-78
2021/01/02 06:18:33;;;;;;;8.70;6.57;;;3.50;99.90;;;;;;4961847;28;20047;-78
2021/01/02 06:21:01;;;;;;;9.73;6.43;;;3.40;99.90;;;;;;4966997;28;20035;-77
2021/01/02 06:23:28;;;;;;;9.95;7.55;;;3.30;99.90;;;;;;4969181;28;20063;-78
2021/01/02 06:25:55;;;;;;;11.82;7.97;;;3.20;99.90;;;;;;4962710;28;20050;-77
2021/01/02 06:28:21;;;;;;;;;;;3.10;99.90;;;;;;4968533;28;20047;-78
2021/01/02 06:30:47;;;;;;;11.02;6.55;;;3.10;99.90;;;;;;4958192;28;20408;-78
2021/01/02 06:33:15;;;;;;;12.13;8.02;;;3.10;99.90;;;;;;4960077;28;20435;-78
2021/01/02 06:35:41;;;;;;;10.90;7.00;;;3.10;99.90;;;;;;4975613;28;20039;-78
2021/01/02 06:38:14;;;;;;;10.95;7.18;;;3.20;99.90;;;;;;4975614;28;20043;-78
2021/01/02 06:40:46;;;;;;;9.82;7.63;;;3.20;99.90;;;;;;4957447;28;20043;-78
2021/01/02 06:43:14;;;;;;;8.55;6.93;;;3.20;99.90;;;;;;4961467;28;20051;-78
2021/01/02 06:45:58;;;;;;;10.15;7.53;;;3.20;99.90;;;;;;4971028;28;20041;-78
2021/01/02 06:48:32;;;;;;;14.60;7.28;;;3.20;99.90;;;;;;4964914;28;20050;-78
2021/01/02 06:50:59;;;;;;;9.45;5.88;;;3.20;99.90;;;;;;4962391;28;20043;-78
2021/01/02 06:53:26;;;;;;;8.05;5.50;;;3.20;99.90;;;;;;4960818;28;20094;-78
2021/01/02 06:55:58;;;;;;;7.53;5.10;;;3.20;99.90;;;;;;4969272;28;20070;-77
2021/01/02 06:58:25;;;;;;;8.23;6.15;;;3.40;99.90;;;;;;4968850;28;20042;-78
2021/01/02 07:00:51;;;;;;;6.50;4.68;;;3.40;99.90;;;;;;4967978;28;20046;-79
2021/01/02 07:03:50;;;;;;;8.13;5.47;;;3.40;99.90;;;;;;4967144;28;20527;-78
2021/01/02 07:06:26;;;;;;;7.88;5.82;;;3.40;99.90;;;;;;4960666;28;20045;-78
2021/01/02 07:08:53;;;;;;;9.65;6.35;;;3.30;99.90;;;;;;4962962;28;20066;-78
2021/01/02 07:11:29;;;;;;;7.05;5.13;;;3.20;99.90;;;;;;4977394;28;20050;-78
2021/01/02 07:14:21;;;;;;;5.95;4.60;;;3.30;99.90;;;;;;4969173;28;20049;-77
2021/01/02 07:16:49;;;;;;;7.82;5.18;;;3.30;99.90;;;;;;4962545;28;20501;-78
2021/01/02 07:19:43;;;;;;;7.13;5.22;;;3.30;99.90;;;;;;4961814;28;20047;-78
2021/01/02 07:22:11;;;;;;;6.72;5.00;;;3.30;99.90;;;;;;4969238;28;20490;-78
2021/01/02 07:24:43;;;;;;;5.80;4.80;;;3.30;99.90;;;;;;4972641;28;20043;-78
2021/01/02 07:27:13;;;;;;;7.22;5.00;;;3.30;99.90;;;;;;4969735;28;20482;-78
2021/01/02 07:29:40;;;;;;;7.03;5.07;;;3.30;99.90;;;;;;4972654;28;20045;-79
2021/01/02 07:32:08;;;;;;;6.53;4.72;;;3.30;99.90;;;;;;4968914;28;20138;-78
2021/01/02 07:34:35;;;;;;;5.38;4.50;;;3.30;99.90;;;;;;4977191;28;20069;-78
2021/01/02 07:37:06;;;;;;;6.70;5.18;;;3.30;99.90;;;;;;4966161;28;20040;-78
2021/01/02 07:39:33;;;;;;;7.47;5.07;;;3.10;99.90;;;;;;4966648;28;20046;-77
2021/01/02 07:42:04;;;;;;;8.77;4.55;;;3.30;99.90;;;;;;4980440;28;20484;-79
2021/01/02 07:44:31;;;;;;;8.23;5.53;;;3.20;99.90;;;;;;4956843;28;20035;-78
2021/01/02 07:46:57;;;;;;;7.22;4.63;;;3.10;99.90;;;;;;4962115;28;20175;-77
2021/01/02 07:49:23;;;;;;;5.05;3.78;;;3.10;99.90;;;;;;4974910;28;20076;-77
2021/01/02 07:51:50;;;;;;;6.65;3.95;;;3.20;99.90;;;;;;4963602;28;20101;-77
2021/01/02 07:54:34;;;;;;;12.68;5.82;;;3.00;99.90;;;;;;4976625;28;20046;-77
2021/01/02 07:57:00;;;;;;;4.43;3.70;;;3.00;99.90;;;;;;4965756;28;20137;-77
2021/01/02 07:59:32;;;;;;;5.75;4.63;;;3.00;99.90;;;;;;4967317;28;20933;-78
2021/01/02 08:01:59;;;;;;;7.47;5.15;;;3.00;99.90;;;;;;4965909;28;20042;-78
2021/01/02 08:04:27;;;;;;;8.00;6.35;;;2.90;99.90;;;;;;4962640;28;20092;-78
2021/01/02 08:06:55;;;;;;;7.72;5.57;;;2.90;99.90;;;;;;4963265;28;20027;-78
2021/01/02 08:09:21;;;;;;;6.15;4.30;;;2.80;99.90;;;;;;4966486;28;20522;-78
2021/01/02 08:11:54;;;;;;;8.65;5.68;;;2.80;99.90;;;;;;4967767;28;20034;-77
2021/01/02 08:14:20;;;;;;;10.13;5.00;;;2.80;99.90;;;;;;4958646;28;20483;-78
2021/01/02 08:17:02;;;;;;;4.00;2.60;;;2.80;99.90;;;;;;4961698;28;20329;-77
2021/01/02 08:19:33;;;;;;;6.47;4.03;;;3.00;99.90;;;;;;4964128;28;20042;-77
2021/01/02 08:22:00;;;;;;;3.95;3.45;;;2.90;99.90;;;;;;4964969;28;20034;-76
2021/01/02 08:24:26;;;;;;;4.55;3.85;;;2.90;99.90;;;;;;4967485;28;20069;-78
2021/01/02 08:26:53;;;;;;;4.55;3.90;;;3.00;99.90;;;;;;4962430;28;20395;-77
2021/01/02 08:29:20;;;;;;;5.25;3.58;;;3.10;99.90;;;;;;4961618;28;20042;-78
2021/01/02 08:31:50;;;;;;;6.43;4.85;;;3.00;99.90;;;;;;4962043;28;20035;-78
2021/01/02 08:34:25;;;;;;;5.20;4.13;;;3.00;99.90;;;;;;4966410;28;20093;-78
2021/01/02 08:36:56;;;;;;;5.35;4.40;;;3.00;99.90;;;;;;4955766;28;20042;-78
2021/01/02 08:39:22;;;;;;;6.57;4.75;;;2.90;99.90;;;;;;4972004;28;20044;-77
2021/01/02 08:41:52;;;;;;;5.85;4.68;;;3.00;99.90;;;;;;4960780;28;20077;-77
2021/01/02 08:44:25;;;;;;;6.93;5.32;;;2.90;99.90;;;;;;4956077;28;20062;-77
2021/01/02 08:46:51;;;;;;;;;;;2.90;99.90;;;;;;4955297;28;20086;-78
2021/01/02 08:49:33;;;;;;;7.63;4.82;;;2.80;99.90;;;;;;4952992;29;19926;-79
2021/01/02 08:52:22;;;;;;;6.07;4.95;;;2.80;99.90;;;;;;4957673;28;20039;-78
2021/01/02 08:54:50;;;;;;;8.25;4.85;;;2.80;99.90;;;;;;4985369;28;20046;-78
2021/01/02 08:57:44;;;;;;;9.38;6.07;;;2.80;99.90;;;;;;4970667;28;20042;-79
2021/01/02 09:00:16;;;;;;;5.10;3.78;;;2.80;99.90;;;;;;4966629;28;20051;-77
2021/01/02 09:02:44;;;;;;;6.88;4.90;;;2.90;99.90;;;;;;4970515;28;20042;-79
2021/01/02 09:05:12;;;;;;;7.82;5.40;;;2.80;99.90;;;;;;4967975;28;20047;-80
2021/01/02 09:07:50;;;;;;;6.68;4.90;;;2.90;99.90;;;;;;4969124;28;20561;-78
2021/01/02 09:10:22;;;;;;;8.27;5.40;;;2.80;99.90;;;;;;4970554;28;20398;-79
2021/01/02 09:13:08;;;;;;;7.03;5.40;;;2.70;99.90;;;;;;4968582;28;20047;-79
2021/01/02 09:16:03;;;;;;;10.73;6.75;;;2.60;99.90;;;;;;4968595;28;20061;-78
2021/01/02 09:18:40;;;;;;;8.00;5.45;;;2.50;99.90;;;;;;4968463;28;20391;-79
2021/01/02 09:21:24;;;;;;;7.57;6.20;;;2.60;99.90;;;;;;4969827;28;20039;-79
2021/01/02 09:23:50;;;;;;;8.07;5.50;;;2.50;99.90;;;;;;4985281;28;20066;-78
2021/01/02 09:26:21;;;;;;;5.70;3.53;;;2.60;99.90;;;;;;4970090;28;20038;-78
2021/01/02 09:28:48;;;;;;;5.95;4.95;;;2.70;99.90;;;;;;4968526;28;20042;-79
2021/01/02 09:31:14;;;;;;;5.60;4.20;;;2.70;99.90;;;;;;4974600;28;20109;-79
2021/01/02 09:33:40;;;;;;;7.28;4.57;;;2.70;99.90;;;;;;4972858;28;20065;-78
2021/01/02 09:36:06;;;;;;;4.43;4.03;;;2.70;99.90;;;;;;4971279;28;20521;-77
2021/01/02 09:38:34;;;;;;;4.20;3.13;;;2.70;99.90;;;;;;4972849;28;20490;-79
2021/01/02 09:41:01;;;;;;;6.00;3.15;;;2.80;99.90;;;;;;4970375;28;20058;-76
2021/01/02 09:43:28;;;;;;;4.35;2.90;;;2.90;99.90;;;;;;4971317;28;20050;-77
2021/01/02 09:45:54;;;;;;;4.13;2.63;;;2.90;99.90;;;;;;4971139;28;20057;-77
2021/01/02 09:48:20;;;;;;;5.13;3.47;;;2.80;99.90;;;;;;4972641;28;20066;-76
2021/01/02 09:50:46;;;;;;;4.40;3.50;;;2.90;99.90;;;;;;4972911;28;20054;-76
2021/01/02 09:53:13;;;;;;;5.60;4.03;;;3.00;99.90;;;;;;4972732;28;20035;-79
2021/01/02 09:55:39;;;;;;;3.53;2.75;;;3.00;99.90;;;;;;4974415;28;20034;-78
2021/01/02 09:58:06;;;;;;;4.00;2.63;;;2.90;99.90;;;;;;4974498;28;20035;-79
2021/01/02 10:00:32;;;;;;;3.78;2.80;;;3.00;99.90;;;;;;4973489;28;20121;-78
2021/01/02 10:02:58;;;;;;;5.43;3.60;;;3.00;99.90;;;;;;4973044;28;20138;-79
2021/01/02 10:05:25;;;;;;;5.25;3.65;;;3.00;99.90;;;;;;4972856;28;20521;-78
2021/01/02 10:07:51;;;;;;;3.72;2.78;;;3.00;99.90;;;;;;4973819;28;20540;-78
2021/01/02 10:10:18;;;;;;;5.72;3.97;;;3.00;99.90;;;;;;4972701;28;20045;-79
2021/01/02 10:12:45;;;;;;;4.10;3.70;;;2.90;99.90;;;;;;4973556;28;20394;-79
2021/01/02 10:15:14;;;;;;;4.95;3.92;;;3.00;99.90;;;;;;4972933;28;20109;-78
2021/01/02 10:17:40;;;;;;;5.45;3.90;;;2.90;99.90;;;;;;4989049;28;20133;-78
2021/01/02 10:20:07;;;;;;;5.18;4.40;;;2.90;99.90;;;;;;4972608;28;20053;-77
2021/01/02 10:22:33;;;;;;;4.85;3.92;;;3.00;99.90;;;;;;4972348;28;20137;-78
2021/01/02 10:24:59;;;;;;;6.88;5.10;;;2.90;99.90;;;;;;4972937;28;20042;-78
2021/01/02 10:27:26;;;;;;;5.57;4.78;;;2.80;99.90;;;;;;4973352;28;20465;-78
2021/01/02 10:29:55;;;;;;;5.78;4.57;;;2.80;99.90;;;;;;4972317;28;20053;-79
2021/01/02 10:32:23;;;;;;;8.70;5.38;;;2.80;99.90;;;;;;4971552;28;20049;-78
2021/01/02 10:34:49;;;;;;;5.93;4.50;;;2.70;99.90;;;;;;4973157;28;20043;-78
2021/01/02 10:37:17;;;;;;;9.00;5.47;;;2.80;99.90;;;;;;4973095;28;20031;-78
2021/01/02 10:39:43;;;;;;;7.10;5.20;;;2.90;99.90;;;;;;4973165;28;20511;-78
2021/01/02 10:42:10;;;;;;;5.28;4.00;;;2.90;99.90;;;;;;4973134;28;20034;-79
2021/01/02 10:44:36;;;;;;;6.63;4.82;;;3.00;99.90;;;;;;4972791;28;20050;-79
2021/01/02 10:47:03;;;;;;;6.00;4.78;;;3.00;99.90;;;;;;4971980;28;20570;-78
2021/01/02 10:49:29;;;;;;;8.48;4.68;;;2.90;99.90;;;;;;4973766;28;20089;-78
2021/01/02 10:51:57;;;;;;;7.95;5.20;;;2.90;99.90;;;;;;4972234;28;20708;-79
2021/01/02 10:54:23;;;;;;;7.07;5.68;;;2.80;99.90;;;;;;4973059;28;20053;-78
2021/01/02 10:56:51;;;;;;;7.28;5.78;;;2.80;99.90;;;;;;4973348;28;20038;-79
2021/01/02 10:59:21;;;;;;;7.70;5.47;;;2.70;99.90;;;;;;4970944;28;20047;-78
2021/01/02 11:01:48;;;;;;;6.20;5.00;;;2.70;99.90;;;;;;4972956;28;20043;-78
2021/01/02 11:04:16;;;;;;;5.72;4.43;;;2.70;99.90;;;;;;4971142;28;20046;-78
2021/01/02 11:06:44;;;;;;;6.55;5.68;;;2.70;99.90;;;;;;4972071;28;20450;-78
2021/01/02 11:09:13;;;;;;;6.47;4.68;;;2.70;99.90;;;;;;4972661;28;20039;-78
2021/01/02 11:11:39;;;;;;;6.43;4.78;;;2.90;99.90;;;;;;4971359;28;20046;-78
2021/01/02 11:14:05;;;;;;;;;;;2.90;99.90;;;;;;4973253;28;20130;-78
2021/01/02 11:16:32;;;;;;;6.50;4.03;;;3.00;99.90;;;;;;4972289;28;20033;-79
2021/01/02 11:18:58;;;;;;;9.23;5.93;;;2.90;99.90;;;;;;4969814;28;20038;-78
2021/01/02 11:21:24;;;;;;;6.75;5.30;;;2.90;99.90;;;;;;4970290;28;20051;-78
2021/01/02 11:23:51;;;;;;;8.55;5.53;;;2.80;99.90;;;;;;4972486;28;20426;-78
2021/01/02 11:26:17;;;;;;;7.53;4.47;;;2.90;99.90;;;;;;4972988;28;20042;-78
2021/01/02 11:28:43;;;;;;;5.07;4.57;;;2.90;99.90;;;;;;4970742;28;20039;-77
2021/01/02 11:31:09;;;;;;;6.05;4.70;;;2.90;99.90;;;;;;4970899;28;20049;-78
2021/01/02 11:33:35;;;;;;;6.32;4.35;;;2.80;99.90;;;;;;4984834;28;20066;-78
2021/01/02 11:36:02;;;;;;;5.35;4.45;;;2.80;99.90;;;;;;4969425;28;20532;-77
2021/01/02 11:38:28;;;;;;;7.50;4.90;;;2.80;99.90;;;;;;4970158;28;20057;-77
2021/01/02 11:40:55;;;;;;;6.90;4.07;;;2.80;99.90;;;;;;4969992;28;20042;-77
2021/01/02 11:43:21;;;;;;;;;;;2.80;99.90;;;;;;4970630;28;20050;-77
2021/01/02 11:45:48;;;;;;;5.93;4.93;;;2.90;99.90;;;;;;4971696;28;19918;-77
2021/01/02 11:48:14;;;;;;;7.13;5.05;;;2.80;99.90;;;;;;4969088;28;20078;-77
2021/01/02 11:50:40;;;;;;;6.60;5.38;;;2.80;99.90;;;;;;4970218;28;20042;-77
2021/01/02 11:53:07;;;;;;;7.00;5.50;;;2.70;99.90;;;;;;4969051;28;20052;-77
2021/01/02 11:55:34;;;;;;;9.13;5.68;;;2.70;99.90;;;;;;4967814;28;20046;-77
2021/01/02 11:58:01;;;;;;;7.50;5.97;;;2.70;99.90;;;;;;4970183;28;20046;-77
2021/01/02 12:00:28;;;;;;;7.15;5.80;;;2.60;99.90;;;;;;4970319;28;20542;-77
2021/01/02 12:02:54;;;;;;;7.85;5.75;;;2.60;99.90;;;;;;4970396;28;20059;-77
2021/01/02 12:05:20;;;;;;;5.85;4.65;;;2.60;99.90;;;;;;4970328;28;20097;-77
2021/01/02 12:07:46;;;;;;;6.55;4.85;;;2.70;99.90;;;;;;4968748;28;20039;-77
2021/01/02 12:10:12;;;;;;;5.97;5.10;;;2.60;99.90;;;;;;4970857;28;20116;-77
2021/01/02 12:12:38;;;;;;;;;;;2.70;99.90;;;;;;4972397;28;20041;-78
2021/01/02 12:15:06;;;;;;;6.30;4.10;;;2.60;99.90;;;;;;4968887;28;19926;-77
2021/01/02 12:17:33;;;;;;;;;;;2.80;99.90;;;;;;4969686;28;20567;-78
2021/01/02 12:20:00;;;;;;;9.45;6.22;;;2.60;99.90;;;;;;4985815;28;20013;-77
2021/01/02 12:22:29;;;;;;;11.57;7.45;;;2.60;99.90;;;;;;4968124;28;20046;-78
2021/01/02 12:24:55;;;;;;;14.63;8.88;;;2.50;99.90;;;;;;4982759;28;20054;-77
2021/01/02 12:27:20;;;;;;;6.60;5.35;;;2.50;99.90;;;;;;4968945;28;20062;-77
2021/01/02 12:29:46;;;;;;;7.88;5.80;;;2.40;99.90;;;;;;4968357;28;20070;-78
2021/01/02 12:32:15;;;;;;;;;;;2.50;99.90;;;;;;4971300;28;20035;-77
2021/01/02 12:34:44;;;;;;;6.80;5.43;;;2.70;99.90;;;;;;4969767;28;19922;-78
2021/01/02 12:37:10;;;;;;;;;;;2.60;99.90;;;;;;4970673;28;20574;-77
2021/01/02 12:39:37;;;;;;;9.45;6.43;;;2.60;99.90;;;;;;4968161;28;20274;-77
2021/01/02 12:42:03;;;;;;;9.65;6.38;;;2.60;99.90;;;;;;4969029;28;20066;-78
2021/01/02 12:44:30;;;;;;;9.57;6.50;;;2.70;99.90;;;;;;4985483;28;20491;-78
2021/01/02 12:46:58;;;;;;;8.70;6.53;;;2.70;99.90;;;;;;4969337;28;20102;-78
2021/01/02 12:49:27;;;;;;;6.53;4.70;;;2.70;99.90;;;;;;4969788;28;20030;-77
2021/01/02 12:51:54;;;;;;;6.53;4.78;;;2.70;99.90;;;;;;4968177;28;20051;-77
2021/01/02 12:54:20;;;;;;;;;;;2.70;99.90;;;;;;4969797;28;20402;-76
2021/01/02 12:56:47;;;;;;;7.13;5.75;;;2.70;99.90;;;;;;4986696;28;19925;-77
2021/01/02 12:59:16;;;;;;;6.00;5.18;;;2.70;99.90;;;;;;4970462;28;20491;-77
2021/01/02 13:01:42;;;;;;;6.82;4.38;;;2.70;99.90;;;;;;4969976;28;20047;-77
2021/01/02 13:04:08;;;;;;;6.95;5.38;;;2.80;99.90;;;;;;4971742;28;20098;-77
2021/01/02 13:06:35;;;;;;;;;;;2.70;99.90;;;;;;4975391;28;20043;-76
2021/01/02 13:09:02;;;;;;;7.30;4.50;;;2.70;99.90;;;;;;4973115;28;19961;-77
2021/01/02 13:11:28;;;;;;;4.70;4.18;;;2.80;99.90;;;;;;4989906;28;20490;-77
2021/01/02 13:13:54;;;;;;;6.82;4.85;;;2.70;99.90;;;;;;4973642;28;20055;-77
2021/01/02 13:16:20;;;;;;;6.13;4.50;;;2.70;99.90;;;;;;4988835;28;20450;-77
2021/01/02 13:18:46;;;;;;;5.35;3.75;;;2.70;99.90;;;;;;4974613;28;20035;-77
2021/01/02 13:21:12;;;;;;;8.27;5.40;;;2.80;99.90;;;;;;4974694;28;20035;-78
2021/01/02 13:23:40;;;;;;;5.55;4.05;;;2.70;99.90;;;;;;4972939;28;20042;-77
2021/01/02 13:26:10;;;;;;;12.68;7.75;;;2.70;99.90;;;;;;4972878;28;20046;-77
2021/01/02 13:28:36;;;;;;;6.53;4.70;;;2.80;99.90;;;;;;4974216;28;20039;-77
2021/01/02 13:31:02;;;;;;;5.88;4.90;;;2.80;99.90;;;;;;4974201;28;20125;-77
2021/01/02 13:33:31;;;;;;;4.85;3.40;;;2.80;99.90;;;;;;4972452;28;20129;-77